createdAt,value
2023-01-17T00:00:43.140Z,5.50
2023-01-17T00:01:47.041Z,5.47
2023-01-17T00:02:50.176Z,5.43
2023-01-17T00:04:14.164Z,5.18
2023-01-17T00:05:36.978Z,5.00
2023-01-17T00:07:00.914Z,5.15
2023-01-17T00:08:22.518Z,5.03
2023-01-17T00:09:44.818Z,5.22
2023-01-17T00:11:18.002Z,4.78
2023-01-17T00:12:13.647Z,5.47
2023-01-17T00:13:39.310Z,5.07
2023-01-17T00:14:42.728Z,6.60
2023-01-17T00:15:46.819Z,5.10
2023-01-17T00:17:19.710Z,5.35
2023-01-17T00:18:43.180Z,5.32
2023-01-17T00:20:19.311Z,5.22
2023-01-17T00:21:59.483Z,4.90
2023-01-17T00:23:23.083Z,4.93
2023-01-17T00:24:44.222Z,6.70
2023-01-17T00:26:29.670Z,4.82
2023-01-17T00:27:31.150Z,5.47
2023-01-17T00:28:38.045Z,5.50
2023-01-17T00:30:10.909Z,5.47
2023-01-17T00:31:08.050Z,5.15
2023-01-17T00:32:40.925Z,5.43
2023-01-17T00:33:35.704Z,6.00
2023-01-17T00:34:44.219Z,5.78
2023-01-17T00:36:09.221Z,5.25
2023-01-17T00:37:40.553Z,5.45
2023-01-17T00:38:37.207Z,6.53
2023-01-17T00:40:02.202Z,5.43
2023-01-17T00:41:39.882Z,5.45
2023-01-17T00:42:33.502Z,4.68
2023-01-17T00:44:17.281Z,5.65
2023-01-17T00:45:59.126Z,5.57
2023-01-17T00:47:20.996Z,5.15
2023-01-17T00:49:04.505Z,4.90
2023-01-17T00:50:26.243Z,5.05
2023-01-17T00:52:23.387Z,4.93
2023-01-17T00:53:34.092Z,5.30
2023-01-17T00:54:56.767Z,5.15
2023-01-17T00:56:23.537Z,6.82
2023-01-17T00:57:46.002Z,5.78
2023-01-17T00:59:29.937Z,5.38
2023-01-17T01:00:50.909Z,5.35
2023-01-17T01:02:42.572Z,5.55
2023-01-17T01:03:54.316Z,4.55
2023-01-17T01:05:39.481Z,4.97
2023-01-17T01:07:20.201Z,5.15
2023-01-17T01:09:05.847Z,5.40
2023-01-17T01:10:27.248Z,6.93
2023-01-17T01:12:19.077Z,6.13
2023-01-17T01:13:53.142Z,5.68
2023-01-17T01:15:13.729Z,5.07
2023-01-17T01:16:37.733Z,6.75
2023-01-17T01:18:19.994Z,5.40
2023-01-17T01:19:41.218Z,5.10
2023-01-17T01:21:29.367Z,4.90
2023-01-17T01:23:07.025Z,5.10
2023-01-17T01:24:28.000Z,5.30
2023-01-17T01:25:49.235Z,5.30
2023-01-17T01:27:34.763Z,5.57
2023-01-17T01:29:17.140Z,5.32
2023-01-17T01:30:35.928Z,5.20
2023-01-17T01:32:19.610Z,5.53
2023-01-17T01:33:50.703Z,5.47
2023-01-17T01:35:14.265Z,4.82
2023-01-17T01:36:11.329Z,5.93
2023-01-17T01:37:14.368Z,5.07
2023-01-17T01:38:20.618Z,4.88
2023-01-17T01:39:25.593Z,5.57
2023-01-17T01:40:29.562Z,5.75
2023-01-17T01:41:54.660Z,5.82
2023-01-17T01:43:04.159Z,5.38
2023-01-17T01:44:49.600Z,5.18
2023-01-17T01:45:58.071Z,4.95
2023-01-17T01:47:23.783Z,5.35
2023-01-17T01:48:59.561Z,5.28
2023-01-17T01:50:38.045Z,5.35
2023-01-17T01:51:34.572Z,5.97
2023-01-17T01:53:06.558Z,5.75
2023-01-17T01:54:42.804Z,5.22
2023-01-17T01:55:44.982Z,5.30
2023-01-17T01:57:15.541Z,5.70
2023-01-17T01:59:53.436Z,5.70
2023-01-17T02:00:48.294Z,6.15
2023-01-17T02:01:55.126Z,5.07
2023-01-17T02:03:04.691Z,5.57
2023-01-17T02:04:16.300Z,5.20
2023-01-17T02:05:24.729Z,4.85
2023-01-17T02:06:54.228Z,6.10
2023-01-17T02:08:26.056Z,5.13
2023-01-17T02:09:56.741Z,5.38
2023-01-17T02:10:53.134Z,5.55
2023-01-17T02:11:58.534Z,5.95
2023-01-17T02:13:32.168Z,5.63
2023-01-17T02:14:26.337Z,6.30
2023-01-17T02:15:50.513Z,5.50
2023-01-17T02:17:29.376Z,5.30
2023-01-17T02:18:55.442Z,5.28
2023-01-17T02:20:37.010Z,5.72
2023-01-17T02:21:52.104Z,5.40
2023-01-17T02:23:32.400Z,5.88
2023-01-17T02:25:18.297Z,4.97
2023-01-17T02:27:25.003Z,5.93
2023-01-17T02:28:37.161Z,5.53
2023-01-17T02:30:00.926Z,5.45
2023-01-17T02:31:54.494Z,4.53
2023-01-17T02:33:35.448Z,5.75
2023-01-17T02:34:58.523Z,5.78
2023-01-17T02:37:28.283Z,4.78
2023-01-17T02:38:43.591Z,4.95
2023-01-17T02:40:01.803Z,5.45
2023-01-17T02:41:53.640Z,5.88
2023-01-17T02:43:03.245Z,4.93
2023-01-17T02:44:10.724Z,5.32
2023-01-17T02:45:40.959Z,5.65
2023-01-17T02:46:52.233Z,5.25
2023-01-17T02:47:57.134Z,5.78
2023-01-17T02:49:02.326Z,5.75
2023-01-17T02:50:37.979Z,5.70
2023-01-17T02:52:13.981Z,5.45
2023-01-17T02:54:27.291Z,5.65
2023-01-17T02:56:23.824Z,5.07
2023-01-17T02:57:53.603Z,5.65
2023-01-17T03:00:00.026Z,5.18
2023-01-17T03:01:22.967Z,5.60
2023-01-17T03:02:41.568Z,5.18
2023-01-17T03:04:09.931Z,5.82
2023-01-17T03:05:24.454Z,6.20
2023-01-17T03:06:52.468Z,5.57
2023-01-17T03:07:58.678Z,6.13
2023-01-17T03:09:03.349Z,5.80
2023-01-17T03:10:10.551Z,5.93
2023-01-17T03:11:25.524Z,5.45
2023-01-17T03:12:30.582Z,5.70
2023-01-17T03:13:35.460Z,6.43
2023-01-17T03:14:38.591Z,5.72
2023-01-17T03:15:41.937Z,5.43
2023-01-17T03:16:45.429Z,5.78
2023-01-17T03:17:56.440Z,6.68
2023-01-17T03:19:03.903Z,5.80
2023-01-17T03:20:09.394Z,5.57
2023-01-17T03:21:35.993Z,5.07
2023-01-17T03:22:39.389Z,5.43
2023-01-17T03:23:46.404Z,6.10
2023-01-17T03:24:52.083Z,6.15
2023-01-17T03:25:55.171Z,6.57
2023-01-17T03:27:00.189Z,5.97
2023-01-17T03:28:36.792Z,6.40
2023-01-17T03:29:26.857Z,5.72
2023-01-17T03:30:29.765Z,6.18
2023-01-17T03:32:02.799Z,6.00
2023-01-17T03:32:57.561Z,5.93
2023-01-17T03:34:06.248Z,6.53
2023-01-17T03:35:11.638Z,5.63
2023-01-17T03:36:14.528Z,5.90
2023-01-17T03:37:19.372Z,6.13
2023-01-17T03:38:22.647Z,6.68
2023-01-17T03:39:27.781Z,5.80
2023-01-17T03:40:30.600Z,5.47
2023-01-17T03:41:35.622Z,5.72
2023-01-17T03:42:39.613Z,5.82
2023-01-17T03:43:43.648Z,6.15
2023-01-17T03:44:47.573Z,5.65
2023-01-17T03:45:54.463Z,6.10
2023-01-17T03:46:59.226Z,6.15
2023-01-17T03:48:03.218Z,6.50
2023-01-17T03:49:08.419Z,5.90
2023-01-17T03:50:42.485Z,5.90
2023-01-17T03:52:00.413Z,7.18
2023-01-17T03:53:29.491Z,5.40
2023-01-17T03:54:47.568Z,5.78
2023-01-17T03:55:50.377Z,5.53
2023-01-17T03:56:56.502Z,5.55
2023-01-17T03:58:21.621Z,6.13
2023-01-17T04:00:00.650Z,5.88
2023-01-17T04:00:48.834Z,5.68
2023-01-17T04:02:14.072Z,5.97
2023-01-17T04:03:17.118Z,7.05
2023-01-17T04:04:20.076Z,7.18
2023-01-17T04:05:23.050Z,5.63
2023-01-17T04:06:26.960Z,5.70
2023-01-17T04:07:29.857Z,5.45
2023-01-17T04:08:44.441Z,5.90
2023-01-17T04:09:50.972Z,6.30
2023-01-17T04:10:54.944Z,5.97
2023-01-17T04:12:31.161Z,6.18
2023-01-17T04:14:02.052Z,5.82
2023-01-17T04:14:50.802Z,5.60
2023-01-17T04:15:54.782Z,5.85
2023-01-17T04:16:58.838Z,5.82
2023-01-17T04:18:05.383Z,5.97
2023-01-17T04:19:34.996Z,7.15
2023-01-17T04:21:01.221Z,6.00
2023-01-17T04:22:04.264Z,5.85
2023-01-17T04:23:11.813Z,6.38
2023-01-17T04:24:36.951Z,6.95
2023-01-17T04:26:08.201Z,5.43
2023-01-17T04:27:34.516Z,5.82
2023-01-17T04:28:29.911Z,5.95
2023-01-17T04:29:35.452Z,5.72
2023-01-17T04:30:38.416Z,5.88
2023-01-17T04:31:42.450Z,6.50
2023-01-17T04:32:48.918Z,5.78
2023-01-17T04:33:53.884Z,7.50
2023-01-17T04:34:57.970Z,6.13
2023-01-17T04:36:05.238Z,6.03
2023-01-17T04:37:38.198Z,6.18
2023-01-17T04:38:32.871Z,6.03
2023-01-17T04:39:38.291Z,6.10
2023-01-17T04:41:03.420Z,6.50
2023-01-17T04:42:07.363Z,6.35
2023-01-17T04:43:10.418Z,6.03
2023-01-17T04:44:35.452Z,6.65
2023-01-17T04:46:18.025Z,5.55
2023-01-17T04:47:33.630Z,5.63
2023-01-17T04:48:33.562Z,5.20
2023-01-17T04:49:37.743Z,6.22
2023-01-17T04:50:42.672Z,6.32
2023-01-17T04:51:45.563Z,5.63
2023-01-17T04:53:09.178Z,6.18
2023-01-17T04:54:12.981Z,5.35
2023-01-17T04:55:16.154Z,5.70
2023-01-17T04:56:21.665Z,6.20
2023-01-17T04:57:27.323Z,5.88
2023-01-17T04:58:31.739Z,6.05
2023-01-17T04:59:35.569Z,6.15
2023-01-17T05:00:38.613Z,6.18
2023-01-17T05:01:42.211Z,6.45
2023-01-17T05:02:45.378Z,6.35
2023-01-17T05:03:48.401Z,5.93
2023-01-17T05:04:52.928Z,6.60
2023-01-17T05:05:56.098Z,7.53
2023-01-17T05:07:01.515Z,6.07
2023-01-17T05:08:06.899Z,6.15
2023-01-17T05:09:39.967Z,6.00
2023-01-17T05:10:34.364Z,5.22
2023-01-17T05:11:40.873Z,6.60
2023-01-17T05:12:47.455Z,7.53
2023-01-17T05:13:54.444Z,6.00
2023-01-17T05:15:02.914Z,6.22
2023-01-17T05:16:09.168Z,5.35
2023-01-17T05:17:13.849Z,5.97
2023-01-17T05:18:19.530Z,6.70
2023-01-17T05:19:25.774Z,7.20
2023-01-17T05:20:29.727Z,6.68
2023-01-17T05:21:32.576Z,5.75
2023-01-17T05:22:35.679Z,6.03
2023-01-17T05:24:03.224Z,5.85
2023-01-17T05:25:06.434Z,5.45
2023-01-17T05:26:39.570Z,5.95
2023-01-17T05:27:34.080Z,6.07
2023-01-17T05:28:45.578Z,6.45
2023-01-17T05:29:49.480Z,6.30
2023-01-17T05:31:30.211Z,5.85
2023-01-17T05:32:18.536Z,5.93
2023-01-17T05:33:23.588Z,5.45
2023-01-17T05:34:28.610Z,6.22
2023-01-17T05:35:37.248Z,6.50
2023-01-17T05:37:04.004Z,6.45
2023-01-17T05:38:05.891Z,5.82
2023-01-17T05:39:09.813Z,5.50
2023-01-17T05:40:16.776Z,6.30
2023-01-17T05:41:20.758Z,5.85
2023-01-17T05:42:52.272Z,5.78
2023-01-17T05:44:09.564Z,5.60
2023-01-17T05:45:14.943Z,5.38
2023-01-17T05:46:19.410Z,5.53
2023-01-17T05:47:32.317Z,5.28
2023-01-17T05:48:36.236Z,5.65
2023-01-17T05:49:40.505Z,5.75
2023-01-17T05:50:44.388Z,6.40
2023-01-17T05:51:48.404Z,5.82
2023-01-17T05:53:21.891Z,8.05
2023-01-17T05:54:49.199Z,5.50
2023-01-17T05:55:49.098Z,5.45
2023-01-17T05:56:53.117Z,5.20
2023-01-17T05:57:59.912Z,5.85
2023-01-17T05:59:03.898Z,5.47
2023-01-17T06:00:07.657Z,6.20
2023-01-17T06:01:10.705Z,5.07
2023-01-17T06:02:18.022Z,6.05
2023-01-17T06:03:24.935Z,5.32
2023-01-17T06:04:28.909Z,5.65
2023-01-17T06:06:02.410Z,6.00
2023-01-17T06:06:57.882Z,5.55
2023-01-17T06:08:01.978Z,5.20
2023-01-17T06:09:05.990Z,5.60
2023-01-17T06:10:12.067Z,5.35
2023-01-17T06:11:15.927Z,5.30
2023-01-17T06:12:20.084Z,5.03
2023-01-17T06:13:24.103Z,6.35
2023-01-17T06:14:29.058Z,5.45
2023-01-17T06:15:56.832Z,5.30
2023-01-17T06:17:15.483Z,5.25
2023-01-17T06:18:25.263Z,5.60
2023-01-17T06:19:29.300Z,5.72
2023-01-17T06:20:39.847Z,5.68
2023-01-17T06:22:05.089Z,5.32
2023-01-17T06:23:29.197Z,5.82
2023-01-17T06:24:57.192Z,5.60
2023-01-17T06:26:02.308Z,6.63
2023-01-17T06:27:11.279Z,5.38
2023-01-17T06:28:26.864Z,5.55
2023-01-17T06:29:53.585Z,5.30
2023-01-17T06:30:57.648Z,4.70
2023-01-17T06:32:24.195Z,4.90
2023-01-17T06:33:24.150Z,5.97
2023-01-17T06:34:29.280Z,5.60
2023-01-17T06:35:33.183Z,4.97
2023-01-17T06:36:37.148Z,4.80
2023-01-17T06:37:41.373Z,5.47
2023-01-17T06:39:08.168Z,5.72
2023-01-17T06:40:08.709Z,5.10
2023-01-17T06:41:11.736Z,5.55
2023-01-17T06:42:14.826Z,4.43
2023-01-17T06:43:19.227Z,5.50
2023-01-17T06:44:44.493Z,5.47
2023-01-17T06:45:45.675Z,4.78
2023-01-17T06:46:49.257Z,4.82
2023-01-17T06:47:52.542Z,4.68
2023-01-17T06:48:55.860Z,4.95
2023-01-17T06:49:58.720Z,4.30
2023-01-17T06:51:01.666Z,4.90
2023-01-17T06:52:14.699Z,4.53
2023-01-17T06:53:47.792Z,5.00
2023-01-17T06:54:43.523Z,4.70
2023-01-17T06:55:48.230Z,4.72
2023-01-17T06:56:51.300Z,6.30
2023-01-17T06:57:55.966Z,4.38
2023-01-17T06:58:59.089Z,4.25
2023-01-17T07:00:02.207Z,4.60
2023-01-17T07:01:09.453Z,4.68
2023-01-17T07:02:12.572Z,4.47
2023-01-17T07:03:22.450Z,4.25
2023-01-17T07:04:25.311Z,5.20
2023-01-17T07:05:28.994Z,4.47
2023-01-17T07:06:32.031Z,4.75
2023-01-17T07:07:36.868Z,5.00
2023-01-17T07:08:39.953Z,4.45
2023-01-17T07:09:54.419Z,4.70
2023-01-17T07:11:02.046Z,4.18
2023-01-17T07:12:06.111Z,4.03
2023-01-17T07:13:36.190Z,3.80
2023-01-17T07:14:35.473Z,4.22
2023-01-17T07:15:41.090Z,3.80
2023-01-17T07:16:48.159Z,4.63
2023-01-17T07:17:51.033Z,5.90
2023-01-17T07:19:22.085Z,4.05
2023-01-17T07:20:22.352Z,3.80
2023-01-17T07:21:25.288Z,4.28
2023-01-17T07:22:28.271Z,4.07
2023-01-17T07:23:31.161Z,4.43
2023-01-17T07:24:36.902Z,3.80
2023-01-17T07:25:39.837Z,4.10
2023-01-17T07:26:44.014Z,3.63
2023-01-17T07:27:47.090Z,4.20
2023-01-17T07:29:12.214Z,3.72
2023-01-17T07:30:14.234Z,4.05
2023-01-17T07:31:17.188Z,3.83
2023-01-17T07:32:22.262Z,3.95
2023-01-17T07:33:47.739Z,3.13
2023-01-17T07:34:48.917Z,3.60
2023-01-17T07:35:52.905Z,3.58
2023-01-17T07:36:55.915Z,4.03
2023-01-17T07:38:01.872Z,4.18
2023-01-17T07:39:06.276Z,3.17
2023-01-17T07:40:10.576Z,3.10
2023-01-17T07:41:16.325Z,3.35
2023-01-17T07:42:19.330Z,3.30
2023-01-17T07:43:25.310Z,3.60
2023-01-17T07:45:32.999Z,3.70
2023-01-17T07:46:36.001Z,3.50
2023-01-17T07:47:39.048Z,3.47
2023-01-17T07:48:42.217Z,3.35
2023-01-17T07:49:45.091Z,3.20
2023-01-17T07:50:57.943Z,3.67
2023-01-17T07:52:01.134Z,3.83
2023-01-17T07:53:05.335Z,3.08
2023-01-17T07:54:10.303Z,3.45
2023-01-17T07:55:13.257Z,3.20
2023-01-17T07:56:18.400Z,3.28
2023-01-17T07:57:21.354Z,3.63
2023-01-17T07:58:24.233Z,3.50
2023-01-17T07:59:27.419Z,2.92
2023-01-17T08:00:30.325Z,3.50
2023-01-17T08:01:33.445Z,3.30
2023-01-17T08:03:05.328Z,3.45
2023-01-17T08:04:22.317Z,3.40
2023-01-17T08:05:23.595Z,3.03
2023-01-17T08:06:26.835Z,2.97
2023-01-17T08:07:32.025Z,2.97
2023-01-17T08:08:35.019Z,2.92
2023-01-17T08:09:37.873Z,2.80
2023-01-17T08:10:40.895Z,3.03
2023-01-17T08:11:43.741Z,2.97
2023-01-17T08:12:50.677Z,2.90
2023-01-17T08:13:59.618Z,2.80
2023-01-17T08:15:02.472Z,3.05
2023-01-17T08:16:07.827Z,2.92
2023-01-17T08:17:20.457Z,3.45
2023-01-17T08:18:23.386Z,2.67
2023-01-17T08:19:26.349Z,2.85
2023-01-17T08:20:29.255Z,2.70
2023-01-17T08:21:34.620Z,2.53
2023-01-17T08:22:37.815Z,2.85
2023-01-17T08:23:40.852Z,3.13
2023-01-17T08:24:47.210Z,3.10
2023-01-17T08:25:50.160Z,2.38
2023-01-17T08:26:55.306Z,2.35
2023-01-17T08:27:59.197Z,2.72
2023-01-17T08:29:02.122Z,3.38
2023-01-17T08:30:09.031Z,2.92
2023-01-17T08:31:13.460Z,2.72
2023-01-17T08:32:16.810Z,2.30
2023-01-17T08:33:19.763Z,2.70
2023-01-17T08:34:22.883Z,2.90
2023-01-17T08:35:25.683Z,2.88
2023-01-17T08:36:29.136Z,2.75
2023-01-17T08:37:32.041Z,2.72
2023-01-17T08:38:34.859Z,2.75
2023-01-17T08:39:40.667Z,2.63
2023-01-17T08:40:46.104Z,2.80
2023-01-17T08:41:51.539Z,2.30
2023-01-17T08:42:59.072Z,2.42
2023-01-17T08:44:02.311Z,2.88
2023-01-17T08:45:09.865Z,2.35
2023-01-17T08:47:15.600Z,2.85
2023-01-17T08:48:18.460Z,2.35
2023-01-17T08:49:21.307Z,2.67
2023-01-17T08:50:25.237Z,2.58
2023-01-17T08:51:33.062Z,2.58
2023-01-17T08:52:39.031Z,2.08
2023-01-17T08:53:42.226Z,2.22
2023-01-17T08:54:45.276Z,2.90
2023-01-17T08:55:51.547Z,3.10
2023-01-17T08:56:55.887Z,2.92
2023-01-17T08:58:12.412Z,2.58
2023-01-17T08:59:15.361Z,2.25
2023-01-17T09:00:18.731Z,2.38
2023-01-17T09:01:21.859Z,2.53
2023-01-17T09:02:25.089Z,2.75
2023-01-17T09:03:27.970Z,2.42
2023-01-17T09:04:30.852Z,2.92
2023-01-17T09:05:33.770Z,2.10
2023-01-17T09:06:44.298Z,2.60
2023-01-17T09:07:49.145Z,2.42
2023-01-17T09:08:54.295Z,2.60
2023-01-17T09:09:58.126Z,2.30
2023-01-17T09:11:09.519Z,2.65
2023-01-17T09:12:12.691Z,2.55
2023-01-17T09:13:15.566Z,2.58
2023-01-17T09:14:18.463Z,2.60
2023-01-17T09:15:21.310Z,2.53
2023-01-17T09:16:24.488Z,2.42
2023-01-17T09:17:27.326Z,2.40
2023-01-17T09:18:31.329Z,2.42
2023-01-17T09:19:35.711Z,2.72
2023-01-17T09:20:38.700Z,2.53
2023-01-17T09:21:41.542Z,2.78
2023-01-17T09:22:46.071Z,2.35
2023-01-17T09:23:49.102Z,2.53
2023-01-17T09:24:52.052Z,2.30
2023-01-17T09:26:00.042Z,2.42
2023-01-17T09:27:04.403Z,2.47
2023-01-17T09:28:07.310Z,2.45
2023-01-17T09:29:10.314Z,2.42
2023-01-17T09:30:16.616Z,1.73
2023-01-17T09:31:25.713Z,2.30
2023-01-17T09:32:28.745Z,2.20
2023-01-17T09:33:32.034Z,2.50
2023-01-17T09:34:34.947Z,2.28
2023-01-17T09:35:38.201Z,2.13
2023-01-17T09:36:42.162Z,2.00
2023-01-17T09:37:45.001Z,2.33
2023-01-17T09:38:48.078Z,2.92
2023-01-17T09:39:51.056Z,2.22
2023-01-17T09:40:54.097Z,2.20
2023-01-17T09:42:10.858Z,2.47
2023-01-17T09:43:45.588Z,2.13
2023-01-17T09:44:54.532Z,2.35
2023-01-17T09:45:57.526Z,1.77
2023-01-17T09:47:14.022Z,2.42
2023-01-17T09:48:25.801Z,2.17
2023-01-17T09:49:44.857Z,1.90
2023-01-17T09:50:57.895Z,2.22
2023-01-17T09:52:01.409Z,1.90
2023-01-17T09:53:21.050Z,2.72
2023-01-17T09:54:27.653Z,1.83
2023-01-17T09:55:43.884Z,2.20
2023-01-17T09:56:55.064Z,2.20
2023-01-17T09:58:05.874Z,2.03
2023-01-17T09:59:11.759Z,2.25
2023-01-17T10:00:36.463Z,2.03
2023-01-17T10:02:01.503Z,2.22
2023-01-17T10:03:34.330Z,1.92
2023-01-17T10:04:55.087Z,1.73
2023-01-17T10:06:34.460Z,2.10
2023-01-17T10:08:14.892Z,1.80
2023-01-17T10:09:49.263Z,2.92
2023-01-17T10:11:25.833Z,2.33
2023-01-17T10:12:49.700Z,1.90
2023-01-17T10:14:15.997Z,2.50
2023-01-17T10:15:39.324Z,1.80
2023-01-17T10:17:06.374Z,1.92
2023-01-17T10:18:36.218Z,1.80
2023-01-17T10:20:16.301Z,1.73
2023-01-17T10:21:37.715Z,1.67
2023-01-17T10:22:58.035Z,2.00
2023-01-17T10:24:34.524Z,3.60
2023-01-17T10:25:50.274Z,1.67
2023-01-17T10:27:22.258Z,2.13
2023-01-17T10:28:47.255Z,1.90
2023-01-17T10:29:51.436Z,2.75
2023-01-17T10:31:13.963Z,2.22
2023-01-17T10:32:19.537Z,2.03
2023-01-17T10:33:28.805Z,1.90
2023-01-17T10:34:41.201Z,2.20
2023-01-17T10:36:00.435Z,1.98
2023-01-17T10:38:29.197Z,1.70
2023-01-17T10:39:33.038Z,1.75
2023-01-17T10:40:44.907Z,2.10
2023-01-17T10:42:02.193Z,2.20
2023-01-17T10:43:25.669Z,2.10
2023-01-17T10:44:37.322Z,1.83
2023-01-17T10:45:56.570Z,2.13
2023-01-17T10:47:09.339Z,2.33
2023-01-17T10:48:34.125Z,1.60
2023-01-17T10:49:42.735Z,2.10
2023-01-17T10:51:17.552Z,1.92
2023-01-17T10:52:47.939Z,1.73
2023-01-17T10:54:40.715Z,1.85
2023-01-17T10:55:53.595Z,1.50
2023-01-17T10:56:56.618Z,2.42
2023-01-17T10:57:59.583Z,1.60
2023-01-17T10:59:31.588Z,2.00
2023-01-17T11:00:46.299Z,2.28
2023-01-17T11:01:51.501Z,1.88
2023-01-17T11:02:54.805Z,1.90
2023-01-17T11:03:58.883Z,1.70
2023-01-17T11:05:21.805Z,1.75
2023-01-17T11:06:26.397Z,1.80
2023-01-17T11:07:30.202Z,2.00
2023-01-17T11:08:51.984Z,1.80
2023-01-17T11:09:56.803Z,1.92
2023-01-17T11:11:03.757Z,1.67
2023-01-17T11:12:27.187Z,2.00
2023-01-17T11:13:36.471Z,1.63
2023-01-17T11:14:39.411Z,1.90
2023-01-17T11:15:50.243Z,2.13
2023-01-17T11:17:04.342Z,2.03
2023-01-17T11:18:17.233Z,1.95
2023-01-17T11:19:32.581Z,1.70
2023-01-17T11:20:43.257Z,1.80
2023-01-17T11:22:01.885Z,1.77
2023-01-17T11:23:26.743Z,1.98
2023-01-17T11:24:47.971Z,1.40
2023-01-17T11:25:54.011Z,1.73
2023-01-17T11:27:00.429Z,1.75
2023-01-17T11:28:19.809Z,2.75
2023-01-17T11:29:36.089Z,1.42
2023-01-17T11:30:52.297Z,1.48
2023-01-17T11:31:58.754Z,1.75
2023-01-17T11:33:09.498Z,1.60
2023-01-17T11:34:27.524Z,1.75
2023-01-17T11:35:44.812Z,1.60
2023-01-17T11:36:49.477Z,1.55
2023-01-17T11:37:59.873Z,1.35
2023-01-17T11:39:06.793Z,1.25
2023-01-17T11:40:22.546Z,1.65
2023-01-17T11:41:28.452Z,1.60
2023-01-17T11:42:38.897Z,1.52
2023-01-17T11:43:57.059Z,1.60
2023-01-17T11:45:25.054Z,1.58
2023-01-17T11:46:29.920Z,1.80
2023-01-17T11:47:32.777Z,1.50
2023-01-17T11:48:40.634Z,1.35
2023-01-17T11:49:52.631Z,1.40
2023-01-17T11:50:59.022Z,1.67
2023-01-17T11:52:08.153Z,1.48
2023-01-17T11:53:19.927Z,1.10
2023-01-17T11:54:22.759Z,1.30
2023-01-17T11:55:26.266Z,1.88
2023-01-17T11:56:37.210Z,1.67
2023-01-17T11:57:40.204Z,1.40
2023-01-17T11:58:43.902Z,1.60
2023-01-17T11:59:50.202Z,1.90
2023-01-17T12:01:30.609Z,1.60
2023-01-17T12:02:42.080Z,1.58
2023-01-17T12:04:03.450Z,1.33
2023-01-17T12:05:43.110Z,1.63
2023-01-17T12:07:13.591Z,1.60
2023-01-17T12:08:16.460Z,1.50
2023-01-17T12:09:41.599Z,1.15
2023-01-17T12:10:56.441Z,1.30
2023-01-17T12:12:55.556Z,1.73
2023-01-17T12:14:15.953Z,1.60
2023-01-17T12:16:00.421Z,1.60
2023-01-17T12:17:19.406Z,1.55
2023-01-17T12:18:46.124Z,1.42
2023-01-17T12:20:25.174Z,1.10
2023-01-17T12:21:51.687Z,1.40
2023-01-17T12:23:21.826Z,1.40
2023-01-17T12:24:45.795Z,1.40
2023-01-17T12:26:19.903Z,1.45
2023-01-17T12:27:32.162Z,1.38
2023-01-17T12:29:01.053Z,1.42
2023-01-17T12:30:18.294Z,1.63
2023-01-17T12:31:50.202Z,1.23
2023-01-17T12:33:23.058Z,1.73
2023-01-17T12:34:52.091Z,1.27
2023-01-17T12:36:02.623Z,1.20
2023-01-17T12:37:37.304Z,1.38
2023-01-17T12:38:40.536Z,1.33
2023-01-17T12:39:53.507Z,1.63
2023-01-17T12:41:11.436Z,1.25
2023-01-17T12:42:39.876Z,1.23
2023-01-17T12:43:44.682Z,1.67
2023-01-17T12:44:53.132Z,1.50
2023-01-17T12:45:56.809Z,1.52
2023-01-17T12:47:03.914Z,1.80
2023-01-17T12:48:15.385Z,1.85
2023-01-17T12:49:32.489Z,1.85
2023-01-17T12:50:53.074Z,1.73
2023-01-17T12:52:14.362Z,1.58
2023-01-17T12:53:46.219Z,1.70
2023-01-17T12:54:55.852Z,1.67
2023-01-17T12:56:11.656Z,1.80
2023-01-17T12:57:14.764Z,1.73
2023-01-17T12:58:23.650Z,1.40
2023-01-17T12:59:42.630Z,2.10
2023-01-17T13:00:51.661Z,1.52
2023-01-17T13:02:01.085Z,1.77
2023-01-17T13:03:30.060Z,1.67
2023-01-17T13:04:58.020Z,1.73
2023-01-17T13:06:03.213Z,1.70
2023-01-17T13:07:32.240Z,1.92
2023-01-17T13:08:51.871Z,1.45
2023-01-17T13:10:06.616Z,1.58
2023-01-17T13:11:15.049Z,1.92
2023-01-17T13:12:28.144Z,1.83
2023-01-17T13:13:31.815Z,1.90
2023-01-17T13:14:34.835Z,2.33
2023-01-17T13:15:42.551Z,1.70
2023-01-17T13:17:00.156Z,1.90
2023-01-17T13:18:11.848Z,2.00
2023-01-17T13:19:38.317Z,2.13
2023-01-17T13:21:05.120Z,1.77
2023-01-17T13:22:18.058Z,1.90
2023-01-17T13:23:31.421Z,1.77
2023-01-17T13:24:50.827Z,1.63
2023-01-17T13:27:03.839Z,1.70
2023-01-17T13:28:13.938Z,1.60
2023-01-17T13:29:36.940Z,1.65
2023-01-17T13:31:12.949Z,1.42
2023-01-17T13:32:44.408Z,1.70
2023-01-17T13:33:59.122Z,2.20
2023-01-17T13:35:02.608Z,1.95
2023-01-17T13:36:31.793Z,1.85
2023-01-17T13:37:52.959Z,1.77
2023-01-17T13:39:19.031Z,1.65
2023-01-17T13:40:30.896Z,2.95
2023-01-17T13:41:52.775Z,1.88
2023-01-17T13:43:00.353Z,1.73
2023-01-17T13:44:21.917Z,1.63
2023-01-17T13:45:31.708Z,2.03
2023-01-17T13:47:18.813Z,2.38
2023-01-17T13:48:22.618Z,1.80
2023-01-17T13:49:34.516Z,2.03
2023-01-17T13:50:41.913Z,2.28
2023-01-17T13:52:33.086Z,1.60
2023-01-17T13:53:41.255Z,1.50
2023-01-17T13:55:01.955Z,1.55
2023-01-17T13:56:20.221Z,2.20
2023-01-17T13:57:40.453Z,1.75
2023-01-17T13:58:54.849Z,1.75
2023-01-17T14:00:22.717Z,1.83
2023-01-17T14:01:28.746Z,1.85
2023-01-17T14:02:37.880Z,2.55
2023-01-17T14:03:46.881Z,2.10
2023-01-17T14:05:12.051Z,2.22
2023-01-17T14:06:36.373Z,2.10
2023-01-17T14:07:56.124Z,2.22
2023-01-17T14:09:10.967Z,2.30
2023-01-17T14:11:02.382Z,1.90
2023-01-17T14:12:17.353Z,1.90
2023-01-17T14:13:34.552Z,2.13
2023-01-17T14:14:45.859Z,2.05
2023-01-17T14:15:50.202Z,2.22
2023-01-17T14:17:26.386Z,1.95
2023-01-17T14:18:42.739Z,2.30
2023-01-17T14:19:48.561Z,2.38
2023-01-17T14:21:02.770Z,2.35
2023-01-17T14:22:22.260Z,2.05
2023-01-17T14:23:36.517Z,2.53
2023-01-17T14:25:06.047Z,2.55
2023-01-17T14:26:23.596Z,2.13
2023-01-17T14:27:32.058Z,1.92
2023-01-17T14:28:36.907Z,2.03
2023-01-17T14:29:59.748Z,3.25
2023-01-17T14:31:14.233Z,2.50
2023-01-17T14:32:24.624Z,2.00
2023-01-17T14:33:36.407Z,2.03
2023-01-17T14:34:45.715Z,2.05
2023-01-17T14:36:01.059Z,2.42
2023-01-17T14:37:29.727Z,2.00
2023-01-17T14:39:01.946Z,1.88
2023-01-17T14:40:04.349Z,2.90
2023-01-17T14:41:11.099Z,2.50
2023-01-17T14:42:24.762Z,2.20
2023-01-17T14:43:52.622Z,2.28
2023-01-17T14:45:02.728Z,2.05
2023-01-17T14:46:24.355Z,2.38
2023-01-17T14:47:54.565Z,2.45
2023-01-17T14:49:05.969Z,2.47
2023-01-17T14:51:07.088Z,2.53
2023-01-17T14:52:15.197Z,2.22
2023-01-17T14:53:51.010Z,2.38
2023-01-17T14:54:54.808Z,2.38
2023-01-17T14:56:12.699Z,2.30
2023-01-17T14:57:30.223Z,2.08
2023-01-17T14:58:39.060Z,3.63
2023-01-17T15:00:06.685Z,2.40
2023-01-17T15:01:16.206Z,2.03
2023-01-17T15:02:21.638Z,2.72
2023-01-17T15:03:26.692Z,2.33
2023-01-17T15:04:34.201Z,2.42
2023-01-17T15:07:28.262Z,1.95
2023-01-17T15:08:35.808Z,1.90
2023-01-17T15:10:12.064Z,2.05
2023-01-17T15:11:16.073Z,2.28
2023-01-17T15:12:21.323Z,3.55
2023-01-17T15:14:11.669Z,2.13
2023-01-17T15:14:58.992Z,2.72
2023-01-17T15:16:48.028Z,2.40
2023-01-17T15:17:43.970Z,2.28
2023-01-17T15:18:47.258Z,2.60
2023-01-17T15:19:56.679Z,2.55
2023-01-17T15:21:32.169Z,2.50
2023-01-17T15:22:30.030Z,1.98
2023-01-17T15:23:59.966Z,2.33
2023-01-17T15:25:02.111Z,2.50
2023-01-17T15:26:41.074Z,3.45
2023-01-17T15:27:56.759Z,2.53
2023-01-17T15:29:06.832Z,2.13
2023-01-17T15:30:45.572Z,2.13
2023-01-17T15:32:14.513Z,2.47
2023-01-17T15:33:45.491Z,2.20
2023-01-17T15:34:47.428Z,2.25
2023-01-17T15:35:58.343Z,4.63
2023-01-17T15:37:28.333Z,3.40
2023-01-17T15:38:38.582Z,3.30
2023-01-17T15:39:42.197Z,3.38
2023-01-17T15:41:15.739Z,3.30
2023-01-17T15:42:23.429Z,3.20
2023-01-17T15:44:13.704Z,3.00
2023-01-17T15:45:25.769Z,3.50
2023-01-17T15:46:36.689Z,2.95
2023-01-17T15:47:39.777Z,3.00
2023-01-17T15:48:47.122Z,2.47
2023-01-17T15:50:23.749Z,2.97
2023-01-17T15:51:48.722Z,3.33
2023-01-17T15:53:24.511Z,2.70
2023-01-17T15:54:51.710Z,3.13
2023-01-17T15:55:53.292Z,2.88
2023-01-17T15:57:07.903Z,3.03
2023-01-17T15:58:40.169Z,2.50
2023-01-17T16:00:06.265Z,3.60
2023-01-17T16:01:17.853Z,2.65
2023-01-17T16:02:35.246Z,2.63
2023-01-17T16:03:40.284Z,3.00
2023-01-17T16:04:43.239Z,2.95
2023-01-17T16:05:53.058Z,3.17
2023-01-17T16:07:26.404Z,2.80
2023-01-17T16:08:28.091Z,3.30
2023-01-17T16:09:43.551Z,2.95
2023-01-17T16:11:16.693Z,3.10
2023-01-17T16:12:11.204Z,3.00
2023-01-17T16:13:36.195Z,2.80
2023-01-17T16:15:12.483Z,2.88
2023-01-17T16:16:16.270Z,2.90
2023-01-17T16:17:25.097Z,2.97
2023-01-17T16:18:32.054Z,2.67
2023-01-17T16:19:37.014Z,2.85
2023-01-17T16:21:05.997Z,3.30
2023-01-17T16:22:12.782Z,2.75
2023-01-17T16:23:51.942Z,2.78
2023-01-17T16:24:55.880Z,2.60
2023-01-17T16:25:59.809Z,4.28
2023-01-17T16:27:05.013Z,3.35
2023-01-17T16:28:18.076Z,3.05
2023-01-17T16:29:22.153Z,2.47
2023-01-17T16:31:03.343Z,2.58
2023-01-17T16:31:49.646Z,2.80
2023-01-17T16:32:53.947Z,2.50
2023-01-17T16:33:57.268Z,3.30
2023-01-17T16:35:04.718Z,3.00
2023-01-17T16:36:50.054Z,2.70